SAS248 EKBI-LEMG
Flight info
| Callsign | SAS248 |
|---|---|
| Flight time | 3h 18m |
| Altitude | 36000 |
| Route | ALS M852 EKERN N125 ELSOB DCT OSNAD DCT IDOSA DCT TOLVU/N0452F370 DCT RAPOR DCT GIMER DCT AHVEC DCT RESMI DCT DEKOD DCT DISAK DCT ARKIP DCT ARNAV DCT LMG DCT UVELI DCT OSMOB DCT VAVIX DCT NETUK DCT PPN DCT NOLSA DCT ALEPO DCT VASUM DCT BANEV DCT BAN DCT GOTOR DCT KAMPO DCT MONTO DCT CRISA DCT VULPE |
| Aircraft | A320/M-SDE3FGHIRWY/LB1 |
Departure
| Time | 2026-05-07 08:46 |
|---|---|
| Airport | Billund Airport (EKBI) |
Arrival
| Time | 2026-05-07 12:04 |
|---|---|
| Airport | Málaga-Costa del Sol Airport (LEMG) |
| Time | Latitude | Longitude | Altitude | Speed | Heading |
|---|---|---|---|---|---|
| 2026-05-07 08:31 | 55.74527 | 9.14618 | 216 ft | 0 kts | 357° |
| 2026-05-07 08:37 | 55.74524 | 9.14619 | 221 ft | 3 kts | 357° |
| 2026-05-07 08:37 | 55.74497 | 9.14622 | 218 ft | 4 kts | 355° |
| 2026-05-07 08:37 | 55.74474 | 9.14624 | 222 ft | 4 kts | 359° |
| 2026-05-07 08:37 | 55.74451 | 9.14615 | 222 ft | 4 kts | 53° |
| 2026-05-07 08:38 | 55.74443 | 9.14572 | 221 ft | 3 kts | 86° |
| 2026-05-07 08:38 | 55.74443 | 9.14565 | 220 ft | 0 kts | 87° |
| 2026-05-07 08:40 | 55.74443 | 9.14570 | 220 ft | 1 kts | 87° |
| 2026-05-07 08:41 | 55.74444 | 9.14615 | 221 ft | 5 kts | 86° |
| 2026-05-07 08:41 | 55.74447 | 9.14694 | 216 ft | 8 kts | 86° |
| 2026-05-07 08:41 | 55.74451 | 9.14798 | 216 ft | 6 kts | 86° |
| 2026-05-07 08:41 | 55.74453 | 9.14875 | 221 ft | 7 kts | 89° |
| 2026-05-07 08:42 | 55.74430 | 9.14963 | 218 ft | 9 kts | 143° |
| 2026-05-07 08:42 | 55.74360 | 9.14985 | 219 ft | 12 kts | 175° |
| 2026-05-07 08:42 | 55.74271 | 9.14994 | 216 ft | 14 kts | 177° |
| 2026-05-07 08:42 | 55.74198 | 9.15087 | 216 ft | 16 kts | 93° |
| 2026-05-07 08:43 | 55.74204 | 9.15296 | 216 ft | 18 kts | 87° |
| 2026-05-07 08:43 | 55.74212 | 9.15534 | 216 ft | 21 kts | 87° |
| 2026-05-07 08:43 | 55.74217 | 9.15781 | 220 ft | 19 kts | 88° |
| 2026-05-07 08:43 | 55.74226 | 9.16032 | 219 ft | 21 kts | 86° |
| 2026-05-07 08:44 | 55.74236 | 9.16310 | 216 ft | 24 kts | 86° |
| 2026-05-07 08:44 | 55.74244 | 9.16588 | 216 ft | 20 kts | 86° |
| 2026-05-07 08:44 | 55.74251 | 9.16780 | 216 ft | 15 kts | 86° |
| 2026-05-07 08:44 | 55.74223 | 9.16899 | 217 ft | 12 kts | 159° |
| 2026-05-07 08:45 | 55.74135 | 9.16915 | 223 ft | 14 kts | 175° |
| 2026-05-07 08:45 | 55.74084 | 9.16792 | 218 ft | 19 kts | 264° |
| 2026-05-07 08:45 | 55.74061 | 9.16106 | 216 ft | 90 kts | 266° |
| 2026-05-07 08:45 | 55.74016 | 9.14655 | 216 ft | 143 kts | 268° |
| 2026-05-07 08:46 | 55.73964 | 9.12674 | 484 ft | 166 kts | 267° |
| 2026-05-07 08:46 | 55.73993 | 9.10623 | 1322 ft | 168 kts | 282° |
| 2026-05-07 08:46 | 55.74476 | 9.08713 | 1866 ft | 178 kts | 306° |
| 2026-05-07 08:46 | 55.75347 | 9.06947 | 2133 ft | 203 kts | 313° |
| 2026-05-07 08:47 | 55.76405 | 9.05064 | 2493 ft | 228 kts | 314° |
| 2026-05-07 08:47 | 55.77583 | 9.02971 | 2935 ft | 251 kts | 314° |
| 2026-05-07 08:47 | 55.78776 | 9.00629 | 3716 ft | 259 kts | 302° |
| 2026-05-07 08:47 | 55.79449 | 8.97666 | 4639 ft | 261 kts | 277° |
| 2026-05-07 08:48 | 55.79310 | 8.94463 | 5567 ft | 263 kts | 250° |
| 2026-05-07 08:48 | 55.78360 | 8.91686 | 6502 ft | 266 kts | 224° |
| 2026-05-07 08:48 | 55.76789 | 8.89949 | 7323 ft | 271 kts | 198° |
| 2026-05-07 08:48 | 55.74901 | 8.89694 | 8100 ft | 278 kts | 169° |
| 2026-05-07 08:49 | 55.73116 | 8.91048 | 8870 ft | 284 kts | 146° |
| 2026-05-07 08:49 | 55.71457 | 8.92999 | 9716 ft | 288 kts | 146° |
| 2026-05-07 08:49 | 55.69801 | 8.94960 | 10399 ft | 296 kts | 146° |
| 2026-05-07 08:49 | 55.68016 | 8.97074 | 10623 ft | 320 kts | 146° |
| 2026-05-07 08:50 | 55.66096 | 8.99339 | 10810 ft | 342 kts | 146° |
| 2026-05-07 08:50 | 55.64074 | 9.01706 | 11304 ft | 352 kts | 146° |
| 2026-05-07 08:50 | 55.62008 | 9.04110 | 11977 ft | 357 kts | 147° |
| 2026-05-07 08:50 | 55.59919 | 9.06534 | 12659 ft | 361 kts | 147° |
| 2026-05-07 08:51 | 55.58525 | 9.08150 | 13127 ft | 363 kts | 147° |
| 2026-05-07 08:51 | 55.55678 | 9.11443 | 14004 ft | 368 kts | 147° |
| 2026-05-07 08:51 | 55.54252 | 9.13090 | 14402 ft | 370 kts | 147° |
| 2026-05-07 08:51 | 55.52086 | 9.15593 | 14995 ft | 374 kts | 147° |
| 2026-05-07 08:52 | 55.49896 | 9.18120 | 15590 ft | 378 kts | 147° |
| 2026-05-07 08:52 | 55.47688 | 9.20665 | 16174 ft | 381 kts | 148° |
| 2026-05-07 08:52 | 55.45460 | 9.23230 | 16765 ft | 384 kts | 148° |
| 2026-05-07 08:52 | 55.43208 | 9.25823 | 17362 ft | 388 kts | 148° |
| 2026-05-07 08:53 | 55.40936 | 9.28437 | 17970 ft | 392 kts | 148° |
| 2026-05-07 08:53 | 55.38639 | 9.31077 | 18551 ft | 396 kts | 148° |
| 2026-05-07 08:53 | 55.36326 | 9.33732 | 19095 ft | 399 kts | 148° |
| 2026-05-07 08:53 | 55.33990 | 9.36404 | 19647 ft | 402 kts | 148° |
| 2026-05-07 08:54 | 55.31631 | 9.39091 | 20232 ft | 406 kts | 148° |
| 2026-05-07 08:54 | 55.29257 | 9.41790 | 20789 ft | 408 kts | 148° |
| 2026-05-07 08:54 | 55.26893 | 9.44474 | 21303 ft | 411 kts | 148° |
| 2026-05-07 08:54 | 55.24474 | 9.47217 | 21796 ft | 415 kts | 148° |
| 2026-05-07 08:55 | 55.22046 | 9.49975 | 22292 ft | 417 kts | 148° |
| 2026-05-07 08:55 | 55.19604 | 9.52751 | 22765 ft | 420 kts | 148° |
| 2026-05-07 08:55 | 55.17142 | 9.55550 | 23240 ft | 423 kts | 148° |
| 2026-05-07 08:55 | 55.14666 | 9.58359 | 23686 ft | 426 kts | 148° |
| 2026-05-07 08:56 | 55.12174 | 9.61176 | 24061 ft | 428 kts | 148° |
| 2026-05-07 08:56 | 55.09662 | 9.64010 | 24426 ft | 431 kts | 148° |
| 2026-05-07 08:56 | 55.07136 | 9.66852 | 24793 ft | 433 kts | 148° |
| 2026-05-07 08:56 | 55.04599 | 9.69706 | 25156 ft | 435 kts | 148° |
| 2026-05-07 08:57 | 55.02043 | 9.72575 | 25509 ft | 438 kts | 148° |
| 2026-05-07 08:57 | 54.99472 | 9.75451 | 25864 ft | 440 kts | 148° |
| 2026-05-07 08:57 | 54.96888 | 9.78337 | 26212 ft | 442 kts | 148° |
| 2026-05-07 08:57 | 54.94294 | 9.81232 | 26569 ft | 445 kts | 148° |
| 2026-05-07 08:58 | 54.91681 | 9.84145 | 26930 ft | 447 kts | 148° |
| 2026-05-07 08:58 | 54.89055 | 9.87064 | 27287 ft | 449 kts | 148° |
| 2026-05-07 08:58 | 54.86407 | 9.89956 | 27645 ft | 451 kts | 152° |
| 2026-05-07 08:58 | 54.83575 | 9.92274 | 27966 ft | 451 kts | 161° |
| 2026-05-07 08:59 | 54.80558 | 9.93753 | 28316 ft | 451 kts | 171° |
| 2026-05-07 08:59 | 54.77452 | 9.94321 | 28744 ft | 448 kts | 181° |
| 2026-05-07 08:59 | 54.74392 | 9.94009 | 29240 ft | 444 kts | 190° |
| 2026-05-07 08:59 | 54.71360 | 9.93060 | 29731 ft | 442 kts | 192° |
| 2026-05-07 09:00 | 54.68339 | 9.92076 | 30205 ft | 441 kts | 192° |
| 2026-05-07 09:00 | 54.65323 | 9.91099 | 30619 ft | 440 kts | 192° |
| 2026-05-07 09:00 | 54.62319 | 9.90125 | 31048 ft | 439 kts | 192° |
| 2026-05-07 09:00 | 54.59314 | 9.89164 | 31477 ft | 438 kts | 192° |
| 2026-05-07 09:01 | 54.56322 | 9.88217 | 31913 ft | 437 kts | 192° |
| 2026-05-07 09:01 | 54.53342 | 9.87273 | 32350 ft | 435 kts | 192° |
| 2026-05-07 09:01 | 54.50364 | 9.86328 | 32793 ft | 434 kts | 192° |
| 2026-05-07 09:01 | 54.47396 | 9.85383 | 33223 ft | 433 kts | 192° |
| 2026-05-07 09:02 | 54.44435 | 9.84430 | 33650 ft | 432 kts | 192° |
| 2026-05-07 09:02 | 54.41479 | 9.83474 | 34085 ft | 431 kts | 192° |
| 2026-05-07 09:02 | 54.38533 | 9.82522 | 34413 ft | 431 kts | 192° |
| 2026-05-07 09:02 | 54.35586 | 9.81575 | 34737 ft | 430 kts | 192° |
| 2026-05-07 09:03 | 54.32644 | 9.80639 | 35044 ft | 430 kts | 192° |
| 2026-05-07 09:03 | 54.29698 | 9.79706 | 35348 ft | 430 kts | 192° |
| 2026-05-07 09:03 | 54.26756 | 9.78777 | 35641 ft | 430 kts | 192° |
| 2026-05-07 09:03 | 54.23849 | 9.77859 | 35923 ft | 430 kts | 192° |
| 2026-05-07 09:04 | 54.20902 | 9.76894 | 36041 ft | 432 kts | 193° |
| 2026-05-07 09:04 | 54.17936 | 9.75876 | 36061 ft | 437 kts | 193° |
| 2026-05-07 09:04 | 54.11944 | 9.73769 | 36059 ft | 440 kts | 193° |
| 2026-05-07 09:05 | 54.05925 | 9.71668 | 36061 ft | 441 kts | 193° |
| 2026-05-07 09:05 | 53.99923 | 9.69621 | 36060 ft | 441 kts | 193° |
| 2026-05-07 09:06 | 53.93933 | 9.67599 | 36063 ft | 442 kts | 193° |
| 2026-05-07 09:06 | 53.87905 | 9.65553 | 36063 ft | 442 kts | 192° |
| 2026-05-07 09:07 | 53.81864 | 9.63520 | 36067 ft | 443 kts | 192° |
| 2026-05-07 09:07 | 53.75821 | 9.61497 | 36066 ft | 443 kts | 193° |
| 2026-05-07 09:08 | 53.69768 | 9.59454 | 36071 ft | 443 kts | 192° |
| 2026-05-07 09:08 | 53.63875 | 9.56581 | 36070 ft | 441 kts | 206° |
| 2026-05-07 09:09 | 53.58521 | 9.51724 | 36070 ft | 440 kts | 210° |
| 2026-05-07 09:09 | 53.53156 | 9.46776 | 36066 ft | 440 kts | 210° |
| 2026-05-07 09:10 | 53.47779 | 9.41845 | 36062 ft | 440 kts | 210° |
| 2026-05-07 09:10 | 53.42401 | 9.36929 | 36062 ft | 440 kts | 210° |
| 2026-05-07 09:11 | 53.37023 | 9.32009 | 36064 ft | 440 kts | 210° |
| 2026-05-07 09:11 | 53.31642 | 9.27100 | 36064 ft | 441 kts | 209° |
| 2026-05-07 09:12 | 53.26251 | 9.22209 | 36059 ft | 441 kts | 209° |
| 2026-05-07 09:12 | 53.20856 | 9.17327 | 36058 ft | 441 kts | 209° |
| 2026-05-07 09:13 | 53.15448 | 9.12450 | 36057 ft | 441 kts | 209° |
| 2026-05-07 09:13 | 53.10042 | 9.07587 | 36061 ft | 442 kts | 209° |
| 2026-05-07 09:14 | 53.04668 | 9.02759 | 36064 ft | 442 kts | 209° |
| 2026-05-07 09:14 | 52.99257 | 8.97911 | 36062 ft | 442 kts | 209° |
| 2026-05-07 09:15 | 52.93830 | 8.93084 | 36060 ft | 442 kts | 209° |
| 2026-05-07 09:15 | 52.88407 | 8.88260 | 36058 ft | 442 kts | 209° |
| 2026-05-07 09:16 | 52.82983 | 8.83441 | 36053 ft | 442 kts | 209° |
| 2026-05-07 09:16 | 52.77596 | 8.78662 | 36050 ft | 443 kts | 209° |
| 2026-05-07 09:17 | 52.72162 | 8.73869 | 36059 ft | 443 kts | 208° |
| 2026-05-07 09:17 | 52.66718 | 8.69092 | 36050 ft | 443 kts | 208° |
| 2026-05-07 09:18 | 52.61276 | 8.64316 | 36054 ft | 443 kts | 209° |
| 2026-05-07 09:18 | 52.55839 | 8.59553 | 36056 ft | 443 kts | 208° |
| 2026-05-07 09:19 | 52.50392 | 8.54800 | 36054 ft | 443 kts | 208° |
| 2026-05-07 09:19 | 52.44943 | 8.50058 | 36060 ft | 443 kts | 208° |
| 2026-05-07 09:20 | 52.39491 | 8.45330 | 36062 ft | 443 kts | 208° |
| 2026-05-07 09:20 | 52.34072 | 8.40646 | 36056 ft | 444 kts | 208° |
| 2026-05-07 09:21 | 52.28617 | 8.35944 | 36050 ft | 444 kts | 208° |
| 2026-05-07 09:21 | 52.23135 | 8.31234 | 36043 ft | 444 kts | 208° |
| 2026-05-07 09:22 | 52.17693 | 8.26421 | 36037 ft | 444 kts | 211° |
| 2026-05-07 09:22 | 52.12491 | 8.21013 | 36046 ft | 444 kts | 214° |
| 2026-05-07 09:23 | 52.07368 | 8.15410 | 36047 ft | 444 kts | 214° |
| 2026-05-07 09:23 | 52.02232 | 8.09962 | 36055 ft | 444 kts | 213° |
| 2026-05-07 09:24 | 51.97015 | 8.04578 | 36052 ft | 444 kts | 213° |
| 2026-05-07 09:24 | 51.91790 | 7.99221 | 36054 ft | 444 kts | 213° |
| 2026-05-07 09:25 | 51.86572 | 7.93854 | 36041 ft | 444 kts | 213° |
| 2026-05-07 09:25 | 51.81356 | 7.88495 | 36038 ft | 444 kts | 213° |
| 2026-05-07 09:26 | 51.76131 | 7.83149 | 36042 ft | 445 kts | 213° |
| 2026-05-07 09:26 | 51.70900 | 7.77810 | 36036 ft | 445 kts | 213° |
| 2026-05-07 09:27 | 51.65665 | 7.72467 | 36038 ft | 445 kts | 213° |
| 2026-05-07 09:28 | 51.57837 | 7.64522 | 36038 ft | 446 kts | 213° |
| 2026-05-07 09:28 | 51.52576 | 7.59212 | 36045 ft | 446 kts | 213° |
| 2026-05-07 09:29 | 51.47316 | 7.53904 | 36072 ft | 446 kts | 213° |
| 2026-05-07 09:29 | 51.42055 | 7.48602 | 36068 ft | 447 kts | 213° |
| 2026-05-07 09:30 | 51.36790 | 7.43315 | 36066 ft | 447 kts | 213° |
| 2026-05-07 09:30 | 51.31520 | 7.38048 | 36057 ft | 446 kts | 213° |
| 2026-05-07 09:31 | 51.26259 | 7.32804 | 36052 ft | 446 kts | 213° |
| 2026-05-07 09:31 | 51.20990 | 7.27569 | 36046 ft | 446 kts | 213° |
| 2026-05-07 09:32 | 51.15724 | 7.22337 | 36053 ft | 446 kts | 213° |
| 2026-05-07 09:32 | 51.13827 | 7.20455 | 36055 ft | 446 kts | 213° |
| 2026-05-07 09:33 | 51.08559 | 7.15235 | 36059 ft | 446 kts | 212° |
| 2026-05-07 09:33 | 51.03279 | 7.10036 | 36064 ft | 447 kts | 212° |
| 2026-05-07 09:34 | 50.97985 | 7.04837 | 36067 ft | 447 kts | 212° |
| 2026-05-07 09:34 | 50.92690 | 6.99646 | 36074 ft | 447 kts | 212° |
| 2026-05-07 09:35 | 50.87434 | 6.94507 | 36074 ft | 447 kts | 212° |
| 2026-05-07 09:35 | 50.82147 | 6.89342 | 36070 ft | 447 kts | 212° |
| 2026-05-07 09:36 | 50.76855 | 6.84194 | 36073 ft | 446 kts | 212° |
| 2026-05-07 09:36 | 50.71562 | 6.79058 | 36070 ft | 446 kts | 212° |
| 2026-05-07 09:37 | 50.66269 | 6.73943 | 36068 ft | 446 kts | 212° |
| 2026-05-07 09:37 | 50.60975 | 6.68840 | 36063 ft | 446 kts | 212° |
| 2026-05-07 09:38 | 50.55683 | 6.63745 | 36057 ft | 446 kts | 212° |
| 2026-05-07 09:38 | 50.50427 | 6.58702 | 36046 ft | 445 kts | 212° |
| 2026-05-07 09:39 | 50.45138 | 6.53644 | 36032 ft | 445 kts | 212° |
| 2026-05-07 09:39 | 50.39847 | 6.48592 | 36025 ft | 445 kts | 212° |
| 2026-05-07 09:40 | 50.34559 | 6.43551 | 36025 ft | 445 kts | 212° |
| 2026-05-07 09:40 | 50.29264 | 6.38517 | 36022 ft | 445 kts | 212° |
| 2026-05-07 09:41 | 50.23970 | 6.33503 | 36026 ft | 445 kts | 212° |
| 2026-05-07 09:41 | 50.18669 | 6.28491 | 36031 ft | 445 kts | 212° |
| 2026-05-07 09:42 | 50.13359 | 6.23492 | 36035 ft | 446 kts | 212° |
| 2026-05-07 09:42 | 50.08085 | 6.18536 | 36037 ft | 446 kts | 212° |
| 2026-05-07 09:43 | 50.02763 | 6.13544 | 36043 ft | 446 kts | 212° |
| 2026-05-07 09:43 | 49.97437 | 6.08566 | 36048 ft | 446 kts | 212° |
| 2026-05-07 09:44 | 49.92106 | 6.03606 | 36056 ft | 447 kts | 212° |
| 2026-05-07 09:44 | 49.86775 | 5.98646 | 36060 ft | 447 kts | 212° |
| 2026-05-07 09:45 | 49.81473 | 5.93731 | 36065 ft | 447 kts | 212° |
| 2026-05-07 09:45 | 49.76421 | 5.88190 | 36063 ft | 445 kts | 226° |
| 2026-05-07 09:46 | 49.72802 | 5.80509 | 36065 ft | 443 kts | 245° |
| 2026-05-07 09:46 | 49.70969 | 5.73133 | 36065 ft | 442 kts | 251° |
| 2026-05-07 09:47 | 49.68889 | 5.64189 | 36065 ft | 443 kts | 250° |
| 2026-05-07 09:47 | 49.66799 | 5.55254 | 36068 ft | 443 kts | 250° |
| 2026-05-07 09:48 | 49.64694 | 5.46311 | 36067 ft | 443 kts | 250° |
| 2026-05-07 09:48 | 49.62584 | 5.37388 | 36070 ft | 443 kts | 250° |
| 2026-05-07 09:49 | 49.60581 | 5.28411 | 36070 ft | 443 kts | 252° |
| 2026-05-07 09:49 | 49.58708 | 5.19358 | 36069 ft | 443 kts | 254° |
| 2026-05-07 09:50 | 49.57069 | 5.10219 | 36068 ft | 442 kts | 256° |
| 2026-05-07 09:50 | 49.55534 | 5.01055 | 36070 ft | 442 kts | 256° |
| 2026-05-07 09:51 | 49.53951 | 4.91916 | 36070 ft | 442 kts | 255° |
| 2026-05-07 09:51 | 49.52315 | 4.82869 | 36066 ft | 441 kts | 255° |
| 2026-05-07 09:52 | 49.50653 | 4.73775 | 36071 ft | 441 kts | 255° |
| 2026-05-07 09:52 | 49.48994 | 4.64670 | 36073 ft | 441 kts | 255° |
| 2026-05-07 09:53 | 49.47346 | 4.55593 | 36075 ft | 441 kts | 255° |
| 2026-05-07 09:53 | 49.45688 | 4.46517 | 36076 ft | 441 kts | 255° |
| 2026-05-07 09:54 | 49.44019 | 4.37445 | 36080 ft | 441 kts | 255° |
| 2026-05-07 09:54 | 49.42348 | 4.28388 | 36077 ft | 441 kts | 254° |
| 2026-05-07 09:55 | 49.40671 | 4.19347 | 36074 ft | 440 kts | 254° |
| 2026-05-07 09:55 | 49.38994 | 4.10372 | 36077 ft | 440 kts | 254° |
| 2026-05-07 09:56 | 49.37295 | 4.01359 | 36078 ft | 439 kts | 253° |
| 2026-05-07 09:56 | 49.34640 | 3.92965 | 36076 ft | 440 kts | 237° |
| 2026-05-07 09:57 | 49.31235 | 3.85167 | 36070 ft | 440 kts | 237° |
| 2026-05-07 09:57 | 49.27843 | 3.77365 | 36077 ft | 440 kts | 237° |
| 2026-05-07 09:58 | 49.24452 | 3.69568 | 36080 ft | 440 kts | 237° |
| 2026-05-07 09:58 | 49.21055 | 3.61779 | 36083 ft | 440 kts | 237° |
| 2026-05-07 09:59 | 49.17650 | 3.54013 | 36082 ft | 439 kts | 237° |
| 2026-05-07 09:59 | 49.14236 | 3.46272 | 36084 ft | 439 kts | 237° |
| 2026-05-07 10:00 | 49.10818 | 3.38548 | 36089 ft | 439 kts | 236° |
| 2026-05-07 10:00 | 49.07421 | 3.30888 | 36089 ft | 439 kts | 237° |
| 2026-05-07 10:01 | 49.04002 | 3.23176 | 36083 ft | 439 kts | 237° |
| 2026-05-07 10:01 | 49.00583 | 3.15479 | 36085 ft | 438 kts | 236° |
| 2026-05-07 10:02 | 48.97162 | 3.07806 | 36089 ft | 438 kts | 236° |
| 2026-05-07 10:02 | 48.93722 | 3.00140 | 36092 ft | 438 kts | 236° |
| 2026-05-07 10:03 | 48.90280 | 2.92498 | 36101 ft | 438 kts | 236° |
| 2026-05-07 10:03 | 48.86837 | 2.84851 | 36085 ft | 438 kts | 236° |
| 2026-05-07 10:04 | 48.83405 | 2.77258 | 36099 ft | 438 kts | 236° |
| 2026-05-07 10:04 | 48.79958 | 2.69631 | 36099 ft | 438 kts | 236° |
| 2026-05-07 10:05 | 48.76498 | 2.62012 | 36102 ft | 438 kts | 236° |
| 2026-05-07 10:05 | 48.73026 | 2.54404 | 36100 ft | 438 kts | 236° |
| 2026-05-07 10:06 | 48.69562 | 2.46821 | 36109 ft | 438 kts | 236° |
| 2026-05-07 10:06 | 48.66119 | 2.39289 | 36095 ft | 437 kts | 236° |
| 2026-05-07 10:07 | 48.62651 | 2.31735 | 36098 ft | 437 kts | 236° |
| 2026-05-07 10:07 | 48.59005 | 2.24385 | 36099 ft | 438 kts | 226° |
| 2026-05-07 10:08 | 48.54077 | 2.19019 | 36088 ft | 440 kts | 206° |
| 2026-05-07 10:08 | 48.48205 | 2.16393 | 36080 ft | 443 kts | 193° |
| 2026-05-07 10:09 | 48.42170 | 2.14453 | 36075 ft | 443 kts | 193° |
| 2026-05-07 10:09 | 48.36140 | 2.12497 | 36063 ft | 443 kts | 194° |
| 2026-05-07 10:10 | 48.30100 | 2.10658 | 36069 ft | 444 kts | 188° |
| 2026-05-07 10:10 | 48.23963 | 2.10916 | 36067 ft | 447 kts | 173° |
| 2026-05-07 10:11 | 48.17799 | 2.12244 | 36068 ft | 447 kts | 173° |
| 2026-05-07 10:11 | 48.11613 | 2.12821 | 36075 ft | 444 kts | 187° |
| 2026-05-07 10:12 | 48.05484 | 2.11646 | 36092 ft | 444 kts | 189° |
| 2026-05-07 10:12 | 47.99346 | 2.10474 | 36097 ft | 445 kts | 189° |
| 2026-05-07 10:13 | 47.93204 | 2.09307 | 36101 ft | 445 kts | 189° |
| 2026-05-07 10:13 | 47.87067 | 2.08145 | 36099 ft | 445 kts | 189° |
| 2026-05-07 10:14 | 47.80964 | 2.06984 | 36102 ft | 444 kts | 189° |
| 2026-05-07 10:14 | 47.74823 | 2.05822 | 36091 ft | 444 kts | 189° |
| 2026-05-07 10:15 | 47.68687 | 2.04654 | 36085 ft | 444 kts | 189° |
| 2026-05-07 10:15 | 47.62608 | 2.03119 | 36076 ft | 442 kts | 199° |
| 2026-05-07 10:16 | 47.56877 | 1.99888 | 36070 ft | 441 kts | 203° |
| 2026-05-07 10:16 | 47.51162 | 1.96569 | 36069 ft | 441 kts | 202° |
| 2026-05-07 10:17 | 47.45439 | 1.93265 | 36072 ft | 441 kts | 202° |
| 2026-05-07 10:17 | 47.39756 | 1.89991 | 36069 ft | 442 kts | 202° |
| 2026-05-07 10:18 | 47.34031 | 1.86694 | 36074 ft | 442 kts | 202° |
| 2026-05-07 10:18 | 47.28302 | 1.83408 | 36074 ft | 442 kts | 202° |
| 2026-05-07 10:19 | 47.22576 | 1.80129 | 36074 ft | 442 kts | 202° |
| 2026-05-07 10:19 | 47.16846 | 1.76865 | 36074 ft | 442 kts | 202° |
| 2026-05-07 10:20 | 47.11108 | 1.73634 | 36071 ft | 442 kts | 202° |
| 2026-05-07 10:20 | 47.05365 | 1.70411 | 36072 ft | 441 kts | 202° |
| 2026-05-07 10:21 | 46.99627 | 1.67194 | 36073 ft | 441 kts | 202° |
| 2026-05-07 10:21 | 46.93892 | 1.63984 | 36073 ft | 441 kts | 202° |
| 2026-05-07 10:22 | 46.88189 | 1.60798 | 36077 ft | 442 kts | 202° |
| 2026-05-07 10:22 | 46.82438 | 1.57591 | 36074 ft | 442 kts | 202° |
| 2026-05-07 10:23 | 46.76691 | 1.54389 | 36072 ft | 442 kts | 202° |
| 2026-05-07 10:23 | 46.70943 | 1.51203 | 36072 ft | 441 kts | 202° |
| 2026-05-07 10:24 | 46.65238 | 1.48052 | 36069 ft | 441 kts | 202° |
| 2026-05-07 10:24 | 46.59492 | 1.44886 | 36061 ft | 441 kts | 202° |
| 2026-05-07 10:25 | 46.53760 | 1.41715 | 36061 ft | 441 kts | 202° |
| 2026-05-07 10:25 | 46.48028 | 1.38559 | 36051 ft | 440 kts | 202° |
| 2026-05-07 10:26 | 46.42241 | 1.35389 | 36055 ft | 450 kts | 202° |
| 2026-05-07 10:26 | 46.36312 | 1.32135 | 36033 ft | 460 kts | 202° |
| 2026-05-07 10:27 | 46.30263 | 1.28837 | 36033 ft | 468 kts | 202° |
| 2026-05-07 10:27 | 46.24184 | 1.25528 | 36407 ft | 466 kts | 202° |
| 2026-05-07 10:27 | 46.21171 | 1.23885 | 36833 ft | 459 kts | 202° |
| 2026-05-07 10:28 | 46.18198 | 1.22262 | 37272 ft | 454 kts | 202° |
| 2026-05-07 10:28 | 46.15267 | 1.20661 | 37710 ft | 448 kts | 202° |
| 2026-05-07 10:28 | 46.12365 | 1.19075 | 38165 ft | 443 kts | 202° |
| 2026-05-07 10:28 | 46.09495 | 1.17505 | 38616 ft | 439 kts | 202° |
| 2026-05-07 10:29 | 46.06658 | 1.15952 | 39000 ft | 433 kts | 202° |
| 2026-05-07 10:29 | 46.03859 | 1.14420 | 39383 ft | 428 kts | 202° |
| 2026-05-07 10:29 | 46.01089 | 1.12928 | 39769 ft | 423 kts | 202° |
| 2026-05-07 10:30 | 45.95515 | 1.10003 | 39644 ft | 433 kts | 201° |
| 2026-05-07 10:30 | 45.92673 | 1.08505 | 39373 ft | 436 kts | 202° |
| 2026-05-07 10:30 | 45.89829 | 1.06992 | 39128 ft | 436 kts | 202° |
| 2026-05-07 10:30 | 45.86977 | 1.05467 | 38926 ft | 437 kts | 202° |
| 2026-05-07 10:31 | 45.84124 | 1.03923 | 38679 ft | 437 kts | 205° |
| 2026-05-07 10:31 | 45.81420 | 1.01971 | 38370 ft | 435 kts | 213° |
| 2026-05-07 10:31 | 45.79007 | 0.99471 | 38080 ft | 433 kts | 221° |
| 2026-05-07 10:31 | 45.76709 | 0.96677 | 37776 ft | 434 kts | 221° |
| 2026-05-07 10:32 | 45.74399 | 0.93889 | 37478 ft | 434 kts | 221° |
| 2026-05-07 10:32 | 45.72080 | 0.91115 | 37188 ft | 434 kts | 221° |
| 2026-05-07 10:32 | 45.69758 | 0.88350 | 36896 ft | 434 kts | 221° |
| 2026-05-07 10:32 | 45.67433 | 0.85589 | 36613 ft | 434 kts | 221° |
| 2026-05-07 10:33 | 45.65110 | 0.82828 | 36331 ft | 435 kts | 221° |
| 2026-05-07 10:33 | 45.62786 | 0.80065 | 36073 ft | 434 kts | 221° |
| 2026-05-07 10:33 | 45.58140 | 0.74543 | 36031 ft | 435 kts | 221° |
| 2026-05-07 10:34 | 45.53489 | 0.69015 | 36028 ft | 435 kts | 221° |
| 2026-05-07 10:34 | 45.48836 | 0.63499 | 36021 ft | 435 kts | 221° |
| 2026-05-07 10:35 | 45.44176 | 0.58000 | 36026 ft | 435 kts | 221° |
| 2026-05-07 10:35 | 45.39514 | 0.52507 | 36034 ft | 435 kts | 221° |
| 2026-05-07 10:36 | 45.34849 | 0.47018 | 36030 ft | 435 kts | 221° |
| 2026-05-07 10:36 | 45.30209 | 0.41559 | 36045 ft | 436 kts | 221° |
| 2026-05-07 10:37 | 45.25530 | 0.36080 | 36044 ft | 436 kts | 220° |
| 2026-05-07 10:37 | 45.20846 | 0.30613 | 36047 ft | 436 kts | 220° |
| 2026-05-07 10:38 | 45.16150 | 0.25147 | 36046 ft | 436 kts | 220° |
| 2026-05-07 10:38 | 45.11451 | 0.19683 | 36047 ft | 436 kts | 220° |
| 2026-05-07 10:39 | 45.06760 | 0.14232 | 36048 ft | 436 kts | 220° |
| 2026-05-07 10:39 | 45.02857 | 0.09707 | 36049 ft | 436 kts | 220° |
| 2026-05-07 10:40 | 44.99744 | 0.06108 | 35892 ft | 436 kts | 220° |
| 2026-05-07 10:40 | 44.97415 | 0.03422 | 36024 ft | 427 kts | 220° |
| 2026-05-07 10:40 | 44.92853 | -0.01847 | 36029 ft | 421 kts | 220° |
| 2026-05-07 10:41 | 44.89077 | -0.06195 | 36026 ft | 421 kts | 220° |
| 2026-05-07 10:41 | 44.84536 | -0.11407 | 36026 ft | 421 kts | 220° |
| 2026-05-07 10:42 | 44.79993 | -0.16609 | 36028 ft | 421 kts | 220° |
| 2026-05-07 10:42 | 44.75447 | -0.21827 | 36033 ft | 421 kts | 220° |
| 2026-05-07 10:43 | 44.70889 | -0.27024 | 36031 ft | 422 kts | 220° |
| 2026-05-07 10:43 | 44.66328 | -0.32200 | 36032 ft | 422 kts | 220° |
| 2026-05-07 10:44 | 44.61665 | -0.37198 | 36042 ft | 422 kts | 216° |
| 2026-05-07 10:44 | 44.56832 | -0.41790 | 36040 ft | 422 kts | 214° |
| 2026-05-07 10:45 | 44.51932 | -0.46345 | 36026 ft | 422 kts | 215° |
| 2026-05-07 10:45 | 44.47065 | -0.50956 | 36022 ft | 422 kts | 215° |
| 2026-05-07 10:46 | 44.42216 | -0.55611 | 36033 ft | 423 kts | 215° |
| 2026-05-07 10:46 | 44.37361 | -0.60267 | 36020 ft | 423 kts | 215° |
| 2026-05-07 10:47 | 44.32537 | -0.64885 | 36030 ft | 423 kts | 215° |
| 2026-05-07 10:47 | 44.27668 | -0.69509 | 36017 ft | 423 kts | 215° |
| 2026-05-07 10:48 | 44.22772 | -0.74067 | 36019 ft | 423 kts | 214° |
| 2026-05-07 10:48 | 44.17850 | -0.78567 | 36020 ft | 423 kts | 214° |
| 2026-05-07 10:49 | 44.12917 | -0.83073 | 36019 ft | 423 kts | 214° |
| 2026-05-07 10:49 | 44.07994 | -0.87573 | 36018 ft | 423 kts | 214° |
| 2026-05-07 10:50 | 44.03112 | -0.92046 | 36019 ft | 423 kts | 214° |
| 2026-05-07 10:50 | 43.98192 | -0.96545 | 36005 ft | 423 kts | 214° |
| 2026-05-07 10:51 | 43.93262 | -1.01039 | 36004 ft | 424 kts | 214° |
| 2026-05-07 10:51 | 43.88332 | -1.05523 | 36010 ft | 424 kts | 214° |
| 2026-05-07 10:52 | 43.83396 | -1.10001 | 36012 ft | 424 kts | 214° |
| 2026-05-07 10:52 | 43.78455 | -1.14469 | 36006 ft | 424 kts | 213° |
| 2026-05-07 10:53 | 43.73538 | -1.18912 | 36012 ft | 425 kts | 214° |
| 2026-05-07 10:53 | 43.68595 | -1.23381 | 36019 ft | 425 kts | 213° |
| 2026-05-07 10:54 | 43.63635 | -1.27840 | 36007 ft | 425 kts | 213° |
| 2026-05-07 10:54 | 43.58684 | -1.32280 | 36016 ft | 424 kts | 213° |
| 2026-05-07 10:55 | 43.53729 | -1.36716 | 36006 ft | 424 kts | 213° |
| 2026-05-07 10:55 | 43.48809 | -1.41124 | 36008 ft | 424 kts | 213° |
| 2026-05-07 10:56 | 43.43853 | -1.45539 | 36016 ft | 424 kts | 213° |
| 2026-05-07 10:56 | 43.38892 | -1.49945 | 36012 ft | 424 kts | 213° |
| 2026-05-07 10:57 | 43.33938 | -1.54354 | 36011 ft | 424 kts | 213° |
| 2026-05-07 10:57 | 43.28976 | -1.58752 | 35976 ft | 425 kts | 212° |
| 2026-05-07 10:58 | 43.23526 | -1.61829 | 35974 ft | 426 kts | 193° |
| 2026-05-07 10:58 | 43.17634 | -1.62909 | 35983 ft | 428 kts | 188° |
| 2026-05-07 10:59 | 43.11721 | -1.63887 | 35973 ft | 428 kts | 188° |
| 2026-05-07 10:59 | 43.05844 | -1.64860 | 35981 ft | 428 kts | 188° |
| 2026-05-07 11:00 | 42.99929 | -1.65834 | 35978 ft | 428 kts | 188° |
| 2026-05-07 11:00 | 42.94019 | -1.66804 | 35980 ft | 428 kts | 188° |
| 2026-05-07 11:01 | 42.88107 | -1.67787 | 35985 ft | 428 kts | 188° |
| 2026-05-07 11:01 | 42.82204 | -1.68764 | 35976 ft | 427 kts | 188° |
| 2026-05-07 11:02 | 42.76301 | -1.69727 | 35984 ft | 427 kts | 189° |
| 2026-05-07 11:02 | 42.70657 | -1.72013 | 35988 ft | 424 kts | 207° |
| 2026-05-07 11:03 | 42.65368 | -1.75585 | 35984 ft | 424 kts | 207° |
| 2026-05-07 11:03 | 42.60078 | -1.79140 | 35984 ft | 424 kts | 206° |
| 2026-05-07 11:04 | 42.54787 | -1.82685 | 35986 ft | 424 kts | 206° |
| 2026-05-07 11:04 | 42.49526 | -1.86209 | 35982 ft | 424 kts | 206° |
| 2026-05-07 11:05 | 42.44236 | -1.89747 | 35983 ft | 424 kts | 206° |
| 2026-05-07 11:05 | 42.38942 | -1.93279 | 35982 ft | 424 kts | 206° |
| 2026-05-07 11:06 | 42.33657 | -1.96796 | 35983 ft | 424 kts | 206° |
| 2026-05-07 11:06 | 42.28370 | -2.00319 | 35979 ft | 424 kts | 206° |
| 2026-05-07 11:07 | 42.23076 | -2.03839 | 35983 ft | 424 kts | 206° |
| 2026-05-07 11:07 | 42.17784 | -2.07343 | 35977 ft | 423 kts | 206° |
| 2026-05-07 11:08 | 42.12496 | -2.10841 | 35976 ft | 423 kts | 206° |
| 2026-05-07 11:08 | 42.07241 | -2.14297 | 35970 ft | 423 kts | 206° |
| 2026-05-07 11:09 | 42.01952 | -2.17778 | 35975 ft | 423 kts | 206° |
| 2026-05-07 11:09 | 41.96664 | -2.21252 | 35974 ft | 423 kts | 206° |
| 2026-05-07 11:10 | 41.91377 | -2.24710 | 35972 ft | 422 kts | 206° |
| 2026-05-07 11:10 | 41.86090 | -2.28164 | 35977 ft | 422 kts | 206° |
| 2026-05-07 11:11 | 41.80810 | -2.31616 | 35979 ft | 422 kts | 206° |
| 2026-05-07 11:11 | 41.75532 | -2.35057 | 35981 ft | 422 kts | 206° |
| 2026-05-07 11:12 | 41.70284 | -2.38467 | 35978 ft | 421 kts | 206° |
| 2026-05-07 11:12 | 41.65012 | -2.41902 | 35979 ft | 421 kts | 206° |
| 2026-05-07 11:13 | 41.59744 | -2.45323 | 35975 ft | 421 kts | 206° |
| 2026-05-07 11:13 | 41.54478 | -2.48726 | 35979 ft | 421 kts | 206° |
| 2026-05-07 11:14 | 41.49207 | -2.52126 | 35976 ft | 420 kts | 206° |
| 2026-05-07 11:14 | 41.43946 | -2.55520 | 35975 ft | 420 kts | 206° |
| 2026-05-07 11:15 | 41.38684 | -2.58909 | 35975 ft | 420 kts | 206° |
| 2026-05-07 11:15 | 41.33415 | -2.62302 | 35971 ft | 420 kts | 207° |
| 2026-05-07 11:16 | 41.28539 | -2.66498 | 35971 ft | 421 kts | 214° |
| 2026-05-07 11:16 | 41.23724 | -2.70936 | 35973 ft | 421 kts | 214° |
| 2026-05-07 11:17 | 41.18906 | -2.75364 | 35973 ft | 422 kts | 214° |
| 2026-05-07 11:17 | 41.14070 | -2.79790 | 35972 ft | 422 kts | 214° |
| 2026-05-07 11:18 | 41.09237 | -2.84222 | 35974 ft | 422 kts | 214° |
| 2026-05-07 11:18 | 41.04402 | -2.88660 | 35973 ft | 423 kts | 214° |
| 2026-05-07 11:19 | 40.99562 | -2.93073 | 35977 ft | 423 kts | 214° |
| 2026-05-07 11:19 | 40.94715 | -2.97487 | 35978 ft | 423 kts | 214° |
| 2026-05-07 11:20 | 40.89870 | -3.01893 | 35972 ft | 423 kts | 214° |
| 2026-05-07 11:20 | 40.85056 | -3.06259 | 35963 ft | 423 kts | 214° |
| 2026-05-07 11:21 | 40.80202 | -3.10648 | 35957 ft | 423 kts | 214° |
| 2026-05-07 11:21 | 40.75194 | -3.14680 | 35948 ft | 422 kts | 204° |
| 2026-05-07 11:22 | 40.69807 | -3.17804 | 35947 ft | 423 kts | 204° |
| 2026-05-07 11:22 | 40.64413 | -3.20912 | 35942 ft | 423 kts | 204° |
| 2026-05-07 11:23 | 40.59010 | -3.24025 | 35944 ft | 424 kts | 204° |
| 2026-05-07 11:23 | 40.53606 | -3.27136 | 35946 ft | 424 kts | 204° |
| 2026-05-07 11:24 | 40.48189 | -3.30245 | 35946 ft | 425 kts | 204° |
| 2026-05-07 11:24 | 40.42765 | -3.33352 | 35952 ft | 425 kts | 204° |
| 2026-05-07 11:25 | 40.37336 | -3.36459 | 35952 ft | 426 kts | 204° |
| 2026-05-07 11:25 | 40.31905 | -3.39562 | 35951 ft | 426 kts | 204° |
| 2026-05-07 11:26 | 40.26498 | -3.42645 | 35951 ft | 427 kts | 204° |
| 2026-05-07 11:26 | 40.21048 | -3.45754 | 35945 ft | 427 kts | 204° |
| 2026-05-07 11:27 | 40.15581 | -3.48853 | 35946 ft | 428 kts | 204° |
| 2026-05-07 11:27 | 40.10099 | -3.51956 | 35942 ft | 429 kts | 204° |
| 2026-05-07 11:28 | 40.04621 | -3.55068 | 35938 ft | 430 kts | 204° |
| 2026-05-07 11:28 | 39.99168 | -3.58160 | 35936 ft | 430 kts | 205° |
| 2026-05-07 11:29 | 39.93666 | -3.61263 | 35932 ft | 431 kts | 205° |
| 2026-05-07 11:29 | 39.88145 | -3.64365 | 35928 ft | 432 kts | 205° |
| 2026-05-07 11:30 | 39.82621 | -3.67469 | 35928 ft | 433 kts | 205° |
| 2026-05-07 11:30 | 39.77084 | -3.70584 | 35931 ft | 433 kts | 205° |
| 2026-05-07 11:31 | 39.71548 | -3.73686 | 35933 ft | 434 kts | 205° |
| 2026-05-07 11:31 | 39.65986 | -3.76749 | 35937 ft | 434 kts | 205° |
| 2026-05-07 11:32 | 39.57966 | -3.81223 | 35936 ft | 435 kts | 205° |
| 2026-05-07 11:33 | 39.52413 | -3.84326 | 35939 ft | 435 kts | 205° |
| 2026-05-07 11:33 | 39.46851 | -3.87423 | 35940 ft | 435 kts | 205° |
| 2026-05-07 11:34 | 39.41281 | -3.90521 | 35935 ft | 436 kts | 205° |
| 2026-05-07 11:34 | 39.35705 | -3.93608 | 35938 ft | 436 kts | 205° |
| 2026-05-07 11:35 | 39.31055 | -3.96130 | 35935 ft | 436 kts | 205° |
| 2026-05-07 11:35 | 39.25439 | -3.99121 | 35934 ft | 437 kts | 205° |
| 2026-05-07 11:36 | 39.19817 | -4.02108 | 35933 ft | 437 kts | 205° |
| 2026-05-07 11:36 | 39.14187 | -4.05105 | 35934 ft | 438 kts | 205° |
| 2026-05-07 11:37 | 39.08549 | -4.08106 | 35934 ft | 438 kts | 206° |
| 2026-05-07 11:37 | 39.02921 | -4.11101 | 35934 ft | 439 kts | 206° |
| 2026-05-07 11:38 | 38.97279 | -4.14096 | 35927 ft | 439 kts | 206° |
| 2026-05-07 11:38 | 38.91620 | -4.17093 | 35833 ft | 440 kts | 206° |
| 2026-05-07 11:38 | 38.88788 | -4.18592 | 35580 ft | 439 kts | 206° |
| 2026-05-07 11:39 | 38.85962 | -4.20089 | 35326 ft | 439 kts | 206° |
| 2026-05-07 11:39 | 38.83138 | -4.21585 | 35085 ft | 440 kts | 207° |
| 2026-05-07 11:39 | 38.80310 | -4.23083 | 34846 ft | 440 kts | 207° |
| 2026-05-07 11:39 | 38.77477 | -4.24581 | 34601 ft | 440 kts | 207° |
| 2026-05-07 11:40 | 38.74646 | -4.26074 | 34363 ft | 441 kts | 207° |
| 2026-05-07 11:40 | 38.71765 | -4.27451 | 34132 ft | 445 kts | 200° |
| 2026-05-07 11:40 | 38.68756 | -4.28452 | 33896 ft | 447 kts | 200° |
| 2026-05-07 11:40 | 38.65782 | -4.29426 | 33623 ft | 448 kts | 200° |
| 2026-05-07 11:41 | 38.62759 | -4.30411 | 33350 ft | 448 kts | 199° |
| 2026-05-07 11:41 | 38.59734 | -4.31392 | 33078 ft | 449 kts | 199° |
| 2026-05-07 11:41 | 38.56700 | -4.32370 | 32805 ft | 450 kts | 199° |
| 2026-05-07 11:41 | 38.53658 | -4.33348 | 32539 ft | 450 kts | 199° |
| 2026-05-07 11:42 | 38.50616 | -4.34328 | 32272 ft | 451 kts | 199° |
| 2026-05-07 11:42 | 38.47570 | -4.35313 | 32014 ft | 452 kts | 199° |
| 2026-05-07 11:42 | 38.44515 | -4.36302 | 31752 ft | 453 kts | 200° |
| 2026-05-07 11:42 | 38.41454 | -4.37296 | 31498 ft | 454 kts | 200° |
| 2026-05-07 11:43 | 38.38389 | -4.38296 | 31246 ft | 455 kts | 200° |
| 2026-05-07 11:43 | 38.35318 | -4.39296 | 30992 ft | 456 kts | 200° |
| 2026-05-07 11:43 | 38.32239 | -4.40290 | 30737 ft | 458 kts | 200° |
| 2026-05-07 11:43 | 38.29142 | -4.41283 | 30497 ft | 459 kts | 200° |
| 2026-05-07 11:44 | 38.26036 | -4.42278 | 30260 ft | 460 kts | 200° |
| 2026-05-07 11:44 | 38.22924 | -4.43274 | 30012 ft | 462 kts | 200° |
| 2026-05-07 11:44 | 38.19800 | -4.44274 | 29730 ft | 463 kts | 200° |
| 2026-05-07 11:44 | 38.16671 | -4.45280 | 29433 ft | 464 kts | 200° |
| 2026-05-07 11:45 | 38.13545 | -4.46288 | 28889 ft | 462 kts | 200° |
| 2026-05-07 11:45 | 38.10416 | -4.47295 | 27967 ft | 461 kts | 199° |
| 2026-05-07 11:45 | 38.07336 | -4.48280 | 27307 ft | 454 kts | 199° |
| 2026-05-07 11:45 | 38.04290 | -4.49251 | 26603 ft | 448 kts | 199° |
| 2026-05-07 11:46 | 38.01288 | -4.50208 | 25914 ft | 443 kts | 199° |
| 2026-05-07 11:46 | 37.98310 | -4.51156 | 25238 ft | 438 kts | 198° |
| 2026-05-07 11:46 | 37.95407 | -4.52079 | 24580 ft | 434 kts | 198° |
| 2026-05-07 11:46 | 37.92492 | -4.53002 | 23922 ft | 430 kts | 198° |
| 2026-05-07 11:47 | 37.89600 | -4.53918 | 23207 ft | 426 kts | 197° |
| 2026-05-07 11:47 | 37.86745 | -4.54828 | 22538 ft | 420 kts | 197° |
| 2026-05-07 11:47 | 37.83937 | -4.55728 | 21927 ft | 413 kts | 197° |
| 2026-05-07 11:47 | 37.81166 | -4.56616 | 21320 ft | 407 kts | 197° |
| 2026-05-07 11:48 | 37.78434 | -4.57491 | 20746 ft | 403 kts | 197° |
| 2026-05-07 11:48 | 37.75731 | -4.58352 | 20193 ft | 398 kts | 197° |
| 2026-05-07 11:48 | 37.73055 | -4.59200 | 19645 ft | 395 kts | 197° |
| 2026-05-07 11:48 | 37.70393 | -4.60042 | 19105 ft | 392 kts | 196° |
| 2026-05-07 11:49 | 37.67754 | -4.60877 | 18575 ft | 390 kts | 196° |
| 2026-05-07 11:49 | 37.65125 | -4.61710 | 17993 ft | 388 kts | 195° |
| 2026-05-07 11:49 | 37.62517 | -4.62534 | 17413 ft | 385 kts | 195° |
| 2026-05-07 11:49 | 37.59929 | -4.63350 | 16862 ft | 381 kts | 195° |
| 2026-05-07 11:50 | 37.57373 | -4.64157 | 16272 ft | 377 kts | 195° |
| 2026-05-07 11:50 | 37.54841 | -4.64951 | 15703 ft | 373 kts | 194° |
| 2026-05-07 11:50 | 37.52306 | -4.65518 | 15314 ft | 366 kts | 191° |
| 2026-05-07 11:50 | 37.49791 | -4.65995 | 15064 ft | 365 kts | 190° |
| 2026-05-07 11:51 | 37.47277 | -4.66437 | 14819 ft | 364 kts | 189° |
| 2026-05-07 11:51 | 37.44807 | -4.66862 | 14578 ft | 363 kts | 189° |
| 2026-05-07 11:51 | 37.42315 | -4.67295 | 14331 ft | 361 kts | 189° |
| 2026-05-07 11:51 | 37.39829 | -4.67732 | 14091 ft | 360 kts | 189° |
| 2026-05-07 11:52 | 37.37371 | -4.68170 | 13646 ft | 354 kts | 189° |
| 2026-05-07 11:52 | 37.34930 | -4.68608 | 13030 ft | 351 kts | 189° |
| 2026-05-07 11:52 | 37.32531 | -4.69041 | 12457 ft | 347 kts | 189° |
| 2026-05-07 11:52 | 37.30149 | -4.69470 | 11878 ft | 344 kts | 189° |
| 2026-05-07 11:53 | 37.27794 | -4.69894 | 11311 ft | 341 kts | 189° |
| 2026-05-07 11:53 | 37.25451 | -4.70315 | 10744 ft | 338 kts | 189° |
| 2026-05-07 11:53 | 37.23158 | -4.70725 | 10524 ft | 326 kts | 189° |
| 2026-05-07 11:53 | 37.20965 | -4.71117 | 10399 ft | 312 kts | 189° |
| 2026-05-07 11:54 | 37.18861 | -4.71495 | 10279 ft | 299 kts | 189° |
| 2026-05-07 11:54 | 37.16836 | -4.71858 | 10157 ft | 288 kts | 189° |
| 2026-05-07 11:54 | 37.14872 | -4.72211 | 9921 ft | 283 kts | 189° |
| 2026-05-07 11:54 | 37.12944 | -4.72558 | 9769 ft | 279 kts | 189° |
| 2026-05-07 11:55 | 37.11022 | -4.72904 | 9624 ft | 278 kts | 189° |
| 2026-05-07 11:55 | 37.09093 | -4.73253 | 9158 ft | 282 kts | 189° |
| 2026-05-07 11:55 | 37.07160 | -4.73600 | 8855 ft | 278 kts | 189° |
| 2026-05-07 11:55 | 37.05250 | -4.73937 | 8483 ft | 277 kts | 189° |
| 2026-05-07 11:56 | 37.03336 | -4.74276 | 8097 ft | 277 kts | 189° |
| 2026-05-07 11:56 | 37.01433 | -4.74613 | 7764 ft | 275 kts | 189° |
| 2026-05-07 11:56 | 36.99537 | -4.74949 | 7444 ft | 274 kts | 189° |
| 2026-05-07 11:56 | 36.97658 | -4.75282 | 7099 ft | 272 kts | 189° |
| 2026-05-07 11:57 | 36.95809 | -4.75608 | 6947 ft | 262 kts | 189° |
| 2026-05-07 11:57 | 36.94092 | -4.75911 | 6754 ft | 247 kts | 189° |
| 2026-05-07 11:57 | 36.92353 | -4.76221 | 6091 ft | 256 kts | 189° |
| 2026-05-07 11:57 | 36.90577 | -4.76540 | 5421 ft | 259 kts | 189° |
| 2026-05-07 11:58 | 36.88823 | -4.76761 | 5137 ft | 248 kts | 180° |
| 2026-05-07 11:58 | 36.87190 | -4.76378 | 5014 ft | 230 kts | 161° |
| 2026-05-07 11:58 | 36.85816 | -4.75453 | 4999 ft | 226 kts | 146° |
| 2026-05-07 11:58 | 36.84681 | -4.74077 | 4999 ft | 228 kts | 135° |
| 2026-05-07 11:59 | 36.83624 | -4.72585 | 4857 ft | 231 kts | 134° |
| 2026-05-07 11:59 | 36.82555 | -4.71077 | 4496 ft | 232 kts | 134° |
| 2026-05-07 11:59 | 36.81483 | -4.69566 | 4151 ft | 231 kts | 134° |
| 2026-05-07 11:59 | 36.80443 | -4.68099 | 3833 ft | 222 kts | 134° |
| 2026-05-07 12:00 | 36.79430 | -4.66673 | 3525 ft | 217 kts | 134° |
| 2026-05-07 12:00 | 36.78443 | -4.65285 | 3226 ft | 210 kts | 133° |
| 2026-05-07 12:00 | 36.77494 | -4.63950 | 2929 ft | 201 kts | 133° |
| 2026-05-07 12:00 | 36.76593 | -4.62683 | 2682 ft | 189 kts | 133° |
| 2026-05-07 12:01 | 36.75746 | -4.61492 | 2401 ft | 179 kts | 133° |
| 2026-05-07 12:01 | 36.74935 | -4.60354 | 2144 ft | 171 kts | 133° |
| 2026-05-07 12:01 | 36.74166 | -4.59273 | 1904 ft | 162 kts | 133° |
| 2026-05-07 12:01 | 36.73446 | -4.58262 | 1683 ft | 151 kts | 133° |
| 2026-05-07 12:02 | 36.72776 | -4.57322 | 1477 ft | 140 kts | 132° |
| 2026-05-07 12:02 | 36.72142 | -4.56438 | 1296 ft | 134 kts | 133° |
| 2026-05-07 12:02 | 36.71516 | -4.55586 | 1147 ft | 133 kts | 131° |
| 2026-05-07 12:02 | 36.70904 | -4.54725 | 961 ft | 133 kts | 130° |
| 2026-05-07 12:03 | 36.70300 | -4.53856 | 743 ft | 133 kts | 129° |
| 2026-05-07 12:03 | 36.69705 | -4.52990 | 543 ft | 131 kts | 131° |
| 2026-05-07 12:03 | 36.69095 | -4.52152 | 332 ft | 130 kts | 132° |
| 2026-05-07 12:03 | 36.68499 | -4.51322 | 135 ft | 129 kts | 131° |
| 2026-05-07 12:04 | 36.67935 | -4.50531 | 54 ft | 100 kts | 132° |
| 2026-05-07 12:04 | 36.67663 | -4.50154 | 54 ft | 32 kts | 131° |
| 2026-05-07 12:04 | 36.67511 | -4.49937 | 51 ft | 34 kts | 130° |
| 2026-05-07 12:04 | 36.67372 | -4.49734 | 48 ft | 28 kts | 125° |
| 2026-05-07 12:05 | 36.67302 | -4.49547 | 45 ft | 21 kts | 106° |
| 2026-05-07 12:05 | 36.67304 | -4.49429 | 43 ft | 12 kts | 47° |
| 2026-05-07 12:05 | 36.67375 | -4.49452 | 42 ft | 10 kts | 313° |
| 2026-05-07 12:05 | 36.67444 | -4.49483 | 42 ft | 13 kts | 22° |
| 2026-05-07 12:06 | 36.67519 | -4.49465 | 42 ft | 9 kts | 28° |
| 2026-05-07 12:06 | 36.67556 | -4.49420 | 42 ft | 5 kts | 51° |
| 2026-05-07 12:06 | 36.67565 | -4.49372 | 42 ft | 7 kts | 104° |
| 2026-05-07 12:06 | 36.67549 | -4.49328 | 42 ft | 2 kts | 116° |
| 2026-05-07 12:07 | 36.67549 | -4.49327 | 42 ft | 0 kts | 116° |